Time;durP1;ratioP1;P1;durP2;ratioP2;P2;SDS_P1;SDS_P2;PMS_P1;PMS_P2;Temp;Humidity;BMP_temperature;BMP_pressure;BME280_temperature;BME280_humidity;BME280_pressure;Samples;Min_cycle;Max_cycle;Signal;HPM_P1;HPM_P2
2022/03/06 00:01:28;;;;;;;10.73;8.60;;;2.00;1.00;;;;;;4955032;29;20211;-86
2022/03/06 00:03:56;;;;;;;12.93;8.52;;;1.00;1.00;;;;;;4955248;29;20210;-86
2022/03/06 00:06:22;;;;;;;10.70;8.65;;;1.90;99.90;;;;;;4955789;29;20207;-86
2022/03/06 00:08:49;;;;;;;10.38;7.80;;;2.00;1.00;;;;;;4956256;29;20275;-85
2022/03/06 00:11:16;;;;;;;9.85;7.78;;;2.00;58.90;;;;;;4955136;29;20214;-85
2022/03/06 00:13:42;;;;;;;12.43;8.77;;;2.10;99.90;;;;;;4955501;29;20224;-85
2022/03/06 00:16:09;;;;;;;9.65;8.65;;;1.80;99.90;;;;;;4956416;29;20230;-85
2022/03/06 00:18:37;;;;;;;13.00;8.57;;;2.00;84.00;;;;;;4957199;29;20207;-85
2022/03/06 00:21:03;;;;;;;8.30;7.00;;;2.00;99.90;;;;;;4952801;29;20274;-85
2022/03/06 00:23:30;;;;;;;10.93;7.65;;;2.00;1.00;;;;;;4947880;29;20203;-85
2022/03/06 00:25:57;;;;;;;9.57;7.55;;;2.00;99.90;;;;;;4945656;29;20251;-86
2022/03/06 00:28:23;;;;;;;12.73;7.75;;;1.90;1.00;;;;;;4945838;29;20352;-85
2022/03/06 00:30:50;;;;;;;10.00;8.40;;;1.90;1.00;;;;;;4944519;29;20249;-86
2022/03/06 00:33:17;;;;;;;10.02;7.50;;;2.00;1.00;;;;;;4946223;29;20206;-86
2022/03/06 00:35:45;;;;;;;11.80;10.57;;;2.00;1.00;;;;;;4943219;29;20251;-85
2022/03/06 00:38:11;;;;;;;16.35;9.85;;;2.00;1.00;;;;;;4948567;28;20198;-85
2022/03/06 00:40:41;;;;;;;9.60;8.10;;;2.00;1.00;;;;;;4960154;28;20191;-85
2022/03/06 00:43:08;;;;;;;12.38;7.80;;;2.10;75.90;;;;;;4947163;29;20207;-86
2022/03/06 00:45:36;;;;;;;8.35;7.55;;;2.00;1.00;;;;;;4949397;29;20266;-85
2022/03/06 00:48:03;;;;;;;8.38;7.10;;;2.00;99.90;;;;;;4959401;29;20254;-85
2022/03/06 00:50:30;;;;;;;9.60;8.60;;;2.10;1.00;;;;;;4958999;29;20207;-85
2022/03/06 00:52:58;;;;;;;9.05;8.05;;;2.10;1.00;;;;;;4959578;29;20207;-85
2022/03/06 00:55:25;;;;;;;10.13;6.90;;;2.00;1.00;;;;;;4952117;29;20701;-85
2022/03/06 00:57:52;;;;;;;7.50;6.80;;;2.10;78.20;;;;;;4942038;29;20231;-85
2022/03/06 01:00:18;;;;;;;10.30;6.45;;;2.10;99.90;;;;;;4941546;29;20223;-85
2022/03/06 01:02:45;;;;;;;7.50;6.82;;;2.00;1.00;;;;;;4941199;29;20211;-85
2022/03/06 01:05:12;;;;;;;10.55;6.50;;;1.90;1.00;;;;;;4942319;29;20235;-85
2022/03/06 01:07:38;;;;;;;6.40;5.80;;;1.80;99.90;;;;;;4942169;29;20265;-85
2022/03/06 01:10:09;;;;;;;6.70;6.05;;;1.90;1.00;;;;;;4942443;29;20250;-86
2022/03/06 01:12:35;;;;;;;7.28;6.63;;;2.80;99.90;;;;;;4943426;29;20682;-86
2022/03/06 01:15:02;;;;;;;7.00;6.40;;;1.90;1.00;;;;;;4945598;29;20278;-85
2022/03/06 01:17:28;;;;;;;9.45;6.93;;;2.00;50.60;;;;;;4950254;29;20211;-85
2022/03/06 01:19:55;;;;;;;7.47;6.68;;;1.90;1.00;;;;;;4955670;29;20211;-85
2022/03/06 01:22:21;;;;;;;7.10;6.40;;;1.90;1.00;;;;;;4954550;29;20242;-86
2022/03/06 01:24:48;;;;;;;14.00;8.52;;;1.90;1.00;;;;;;4953858;29;20290;-86
2022/03/06 01:27:16;;;;;;;7.03;6.15;;;2.00;1.00;;;;;;4952524;29;20207;-86
2022/03/06 01:29:44;;;;;;;6.93;6.30;;;2.00;99.90;;;;;;4952146;29;20207;-85
2022/03/06 01:32:11;;;;;;;7.75;6.95;;;2.00;99.90;;;;;;4952015;29;20215;-85
2022/03/06 01:34:37;;;;;;;9.95;7.00;;;1.90;1.00;;;;;;4947074;29;20722;-86
2022/03/06 01:37:04;;;;;;;6.30;5.70;;;1.90;99.90;;;;;;4945319;29;20282;-86
2022/03/06 01:39:31;;;;;;;8.95;8.05;;;1.90;99.90;;;;;;4949098;29;20234;-85
2022/03/06 01:41:57;;;;;;;8.93;7.90;;;1.90;99.90;;;;;;4949060;29;20286;-86
2022/03/06 01:44:25;;;;;;;8.55;7.60;;;1.90;99.90;;;;;;4948140;29;20667;-85
2022/03/06 01:46:52;;;;;;;9.38;6.30;;;1.90;99.90;;;;;;4952879;29;20187;-85
2022/03/06 01:49:18;;;;;;;10.05;7.60;;;1.90;92.90;;;;;;4954071;29;20206;-85
2022/03/06 01:51:45;;;;;;;8.25;7.00;;;1.90;1.00;;;;;;4958793;29;20214;-85
2022/03/06 01:54:13;;;;;;;7.80;7.10;;;2.00;99.90;;;;;;4958014;28;20219;-83
2022/03/06 01:56:41;;;;;;;8.30;7.30;;;2.00;1.00;;;;;;4963693;28;20259;-84
2022/03/06 01:59:07;;;;;;;8.73;7.40;;;1.90;11.70;;;;;;4963896;28;20176;-84
2022/03/06 02:01:35;;;;;;;9.38;7.32;;;1.90;99.90;;;;;;4963768;28;20191;-83
2022/03/06 02:04:02;;;;;;;8.07;7.28;;;1.90;47.30;;;;;;4963712;28;20244;-83
2022/03/06 02:06:29;;;;;;;9.05;8.15;;;1.90;1.00;;;;;;4962888;28;20224;-85
2022/03/06 02:08:56;;;;;;;11.15;9.10;;;1.80;99.90;;;;;;4947918;29;20258;-85
2022/03/06 02:11:23;;;;;;;11.32;7.35;;;1.80;1.00;;;;;;4947790;29;20214;-86
2022/03/06 02:13:50;;;;;;;10.35;9.00;;;1.70;38.30;;;;;;4946369;29;20238;-85
2022/03/06 02:16:17;;;;;;;10.52;9.52;;;1.80;1.00;;;;;;4945929;29;20227;-85
2022/03/06 02:18:45;;;;;;;10.52;9.35;;;1.80;1.00;;;;;;4946375;29;20219;-85
2022/03/06 02:21:14;;;;;;;11.90;10.65;;;1.90;24.70;;;;;;4953911;29;20254;-86
2022/03/06 02:23:42;;;;;;;11.65;10.18;;;1.80;99.90;;;;;;4945630;29;20266;-85
2022/03/06 02:26:09;;;;;;;12.48;11.32;;;1.80;53.60;;;;;;4944555;29;20203;-85
2022/03/06 02:28:36;;;;;;;13.45;12.05;;;1.70;51.70;;;;;;4944280;29;20242;-85
2022/03/06 02:31:03;;;;;;;11.93;10.65;;;1.60;1.00;;;;;;4943734;29;20203;-85
2022/03/06 02:33:30;;;;;;;14.18;11.73;;;1.60;1.00;;;;;;4942248;29;20230;-85
2022/03/06 02:35:56;;;;;;;12.98;10.70;;;1.70;99.90;;;;;;4942846;29;20227;-85
2022/03/06 02:38:24;;;;;;;11.82;10.55;;;1.70;99.90;;;;;;4943550;29;20214;-85
2022/03/06 02:40:53;;;;;;;17.10;12.68;;;1.70;99.90;;;;;;4943212;29;20654;-85
2022/03/06 02:43:20;;;;;;;12.02;10.13;;;1.60;1.00;;;;;;4943357;29;20683;-85
2022/03/06 02:45:47;;;;;;;11.80;10.60;;;1.60;1.00;;;;;;4942543;29;20235;-85
2022/03/06 02:48:13;;;;;;;14.52;10.80;;;1.50;1.00;;;;;;4948980;29;20231;-85
2022/03/06 02:50:40;;;;;;;11.77;10.18;;;1.50;1.00;;;;;;4962004;28;20191;-83
2022/03/06 02:53:09;;;;;;;12.38;9.82;;;1.60;99.90;;;;;;4962121;28;20215;-84
2022/03/06 02:55:38;;;;;;;13.18;10.25;;;1.30;99.90;;;;;;4961665;28;20227;-85
2022/03/06 02:58:05;;;;;;;10.80;9.18;;;1.60;99.90;;;;;;4961912;28;20199;-84
2022/03/06 03:00:32;;;;;;;10.32;9.05;;;1.60;99.90;;;;;;4961918;29;20187;-84
2022/03/06 03:02:58;;;;;;;9.85;7.57;;;1.50;1.00;;;;;;4948323;29;20262;-85
2022/03/06 03:05:26;;;;;;;15.57;9.10;;;1.50;1.00;;;;;;4944449;29;20237;-85
2022/03/06 03:07:53;;;;;;;10.27;8.02;;;1.50;31.20;;;;;;4943264;29;20203;-85
2022/03/06 03:10:22;;;;;;;12.23;8.57;;;1.50;29.60;;;;;;4942759;29;20203;-85
2022/03/06 03:12:50;;;;;;;11.88;7.93;;;1.50;99.90;;;;;;4947729;29;20214;-85
2022/03/06 03:15:17;;;;;;;10.15;7.35;;;1.50;1.00;;;;;;4962062;28;20223;-84
2022/03/06 03:17:44;;;;;;;8.50;7.68;;;1.50;99.90;;;;;;4962186;28;20258;-83
2022/03/06 03:20:12;;;;;;;8.77;7.38;;;1.50;99.90;;;;;;4961702;28;20192;-83
2022/03/06 03:22:39;;;;;;;10.35;8.48;;;1.50;99.90;;;;;;4955901;28;20219;-84
2022/03/06 03:25:07;;;;;;;11.35;8.38;;;1.50;35.00;;;;;;4961427;28;20250;-83
2022/03/06 03:27:34;;;;;;;10.95;7.88;;;1.50;44.10;;;;;;4962177;28;20206;-82
2022/03/06 03:30:02;;;;;;;8.70;7.82;;;1.40;1.00;;;;;;4961709;28;20198;-84
2022/03/06 03:32:28;;;;;;;10.15;6.95;;;1.40;1.00;;;;;;4959059;28;20207;-84
2022/03/06 03:34:55;;;;;;;8.00;7.20;;;1.50;17.20;;;;;;4956076;29;20213;-84
2022/03/06 03:37:22;;;;;;;9.00;6.95;;;1.40;1.00;;;;;;4941091;29;20255;-86
2022/03/06 03:39:48;;;;;;;10.00;6.80;;;1.40;1.00;;;;;;4939510;29;20211;-85
2022/03/06 03:42:15;;;;;;;7.35;6.68;;;1.50;32.30;;;;;;4938868;29;20292;-85
2022/03/06 03:44:41;;;;;;;9.48;6.68;;;1.60;1.00;;;;;;4938821;29;20290;-87
2022/03/06 03:47:09;;;;;;;9.63;6.45;;;1.50;1.00;;;;;;4938782;29;20255;-86
2022/03/06 03:49:36;;;;;;;6.07;5.43;;;1.50;1.00;;;;;;4939722;29;20269;-85
2022/03/06 03:52:03;;;;;;;7.68;6.20;;;1.60;56.60;;;;;;4939368;29;20222;-85
2022/03/06 03:54:30;;;;;;;7.47;6.68;;;1.50;1.00;;;;;;4939571;29;20219;-86
2022/03/06 03:56:56;;;;;;;7.65;5.85;;;1.40;1.00;;;;;;4939883;29;20246;-86
2022/03/06 03:59:23;;;;;;;11.65;6.95;;;1.60;99.90;;;;;;4939619;29;20245;-86
2022/03/06 04:01:51;;;;;;;9.52;6.10;;;1.30;1.00;;;;;;4939887;29;20210;-86
2022/03/06 04:04:19;;;;;;;8.43;6.22;;;1.30;87.30;;;;;;4938924;29;20262;-85
2022/03/06 04:06:46;;;;;;;8.82;5.97;;;1.40;99.90;;;;;;4939694;29;20340;-85
2022/03/06 04:09:12;;;;;;;8.02;5.50;;;1.40;99.90;;;;;;4939550;29;20206;-86
2022/03/06 04:11:39;;;;;;;8.05;5.72;;;1.30;2.50;;;;;;4939784;29;20231;-86
2022/03/06 04:14:05;;;;;;;6.35;5.38;;;1.40;33.60;;;;;;4939628;29;20273;-86
2022/03/06 04:16:32;;;;;;;5.95;5.07;;;1.40;93.40;;;;;;4939295;29;20223;-86
2022/03/06 04:18:59;;;;;;;7.28;5.88;;;1.40;18.30;;;;;;4939455;29;20623;-86
2022/03/06 04:21:26;;;;;;;6.00;5.43;;;1.30;60.70;;;;;;4938857;29;20215;-86
2022/03/06 04:23:53;;;;;;;7.03;5.28;;;1.40;99.90;;;;;;4939413;29;20207;-85
2022/03/06 04:26:20;;;;;;;6.85;4.90;;;1.40;22.60;;;;;;4940004;29;20191;-86
2022/03/06 04:28:46;;;;;;;6.00;4.68;;;1.40;1.00;;;;;;4940559;29;20230;-86
2022/03/06 04:31:13;;;;;;;5.82;5.32;;;1.40;1.00;;;;;;4939951;29;20206;-85
2022/03/06 04:33:40;;;;;;;8.73;6.03;;;1.40;1.00;;;;;;4944142;29;20211;-85
2022/03/06 04:36:06;;;;;;;8.95;5.00;;;1.40;1.00;;;;;;4941442;29;20234;-85
2022/03/06 04:38:38;;;;;;;6.55;5.93;;;1.30;1.00;;;;;;4947590;29;20297;-85
2022/03/06 04:41:04;;;;;;;6.03;5.05;;;1.50;20.50;;;;;;4950669;29;20192;-86
2022/03/06 04:43:31;;;;;;;6.18;5.40;;;1.30;1.00;;;;;;4956829;29;20195;-85
2022/03/06 04:45:58;;;;;;;8.93;5.97;;;1.30;1.00;;;;;;4957286;29;20714;-85
2022/03/06 04:48:24;;;;;;;5.65;4.93;;;1.30;1.00;;;;;;4957492;29;20203;-84
2022/03/06 04:50:51;;;;;;;7.55;5.47;;;1.30;99.90;;;;;;4959408;29;20210;-85
2022/03/06 04:53:17;;;;;;;9.73;6.70;;;1.30;99.90;;;;;;4952019;29;20202;-85
2022/03/06 04:55:45;;;;;;;8.30;5.82;;;1.30;99.90;;;;;;4955710;29;20223;-85
2022/03/06 04:58:12;;;;;;;8.02;7.07;;;1.40;99.90;;;;;;4958168;29;20294;-84
2022/03/06 05:00:39;;;;;;;8.10;6.20;;;1.40;1.00;;;;;;4957652;29;20433;-85
2022/03/06 05:03:05;;;;;;;11.73;7.22;;;1.30;99.90;;;;;;4963033;28;20215;-83
2022/03/06 05:05:32;;;;;;;9.15;7.25;;;1.30;99.90;;;;;;4958745;29;20226;-85
2022/03/06 05:07:59;;;;;;;8.68;6.45;;;1.30;1.00;;;;;;4962436;29;20239;-84
2022/03/06 05:10:26;;;;;;;8.50;6.65;;;1.40;99.90;;;;;;4963461;28;20449;-83
2022/03/06 05:12:54;;;;;;;7.55;6.60;;;1.30;99.90;;;;;;4964511;28;20187;-84
2022/03/06 05:15:20;;;;;;;8.57;6.75;;;1.40;99.90;;;;;;4961381;28;20231;-86
2022/03/06 05:17:47;;;;;;;9.77;6.88;;;1.30;64.70;;;;;;4960127;29;20219;-86
2022/03/06 05:20:14;;;;;;;9.45;7.13;;;1.40;1.00;;;;;;4953753;29;20219;-86
2022/03/06 05:22:41;;;;;;;8.37;7.00;;;1.30;99.90;;;;;;4948536;29;20464;-86
2022/03/06 05:25:09;;;;;;;8.20;7.40;;;1.30;99.90;;;;;;4948745;29;20470;-86
2022/03/06 05:27:36;;;;;;;8.23;7.32;;;1.30;99.90;;;;;;4963011;29;20223;-85
2022/03/06 05:30:06;;;;;;;10.10;7.35;;;1.30;29.00;;;;;;4964074;28;20183;-84
2022/03/06 05:32:33;;;;;;;7.30;6.60;;;1.30;99.90;;;;;;4964229;28;20176;-84
2022/03/06 05:35:00;;;;;;;8.13;7.28;;;1.20;95.50;;;;;;4964192;28;20218;-84
2022/03/06 05:37:26;;;;;;;8.63;7.63;;;1.30;1.00;;;;;;4964024;28;20227;-85
2022/03/06 05:39:54;;;;;;;7.35;6.63;;;1.30;99.90;;;;;;4963992;28;20195;-85
2022/03/06 05:42:20;;;;;;;7.85;7.07;;;1.40;99.90;;;;;;4961971;28;20195;-86
2022/03/06 05:44:47;;;;;;;8.85;6.70;;;1.30;1.00;;;;;;4961942;29;20243;-86
2022/03/06 05:47:15;;;;;;;10.30;6.32;;;1.30;1.00;;;;;;4961075;29;20191;-86
2022/03/06 05:49:41;;;;;;;7.90;7.10;;;1.30;1.00;;;;;;4957190;29;20206;-86
2022/03/06 05:52:08;;;;;;;10.70;7.22;;;1.40;1.00;;;;;;4959006;29;20207;-86
2022/03/06 05:54:35;;;;;;;7.55;6.85;;;1.40;99.90;;;;;;4956229;29;20227;-86
2022/03/06 05:57:02;;;;;;;7.20;6.50;;;1.40;1.00;;;;;;4957723;29;20219;-86
2022/03/06 05:59:29;;;;;;;12.48;7.28;;;1.40;99.90;;;;;;4956600;29;20239;-86
2022/03/06 06:01:55;;;;;;;9.63;7.30;;;1.40;36.80;;;;;;4953106;29;20211;-86
2022/03/06 06:04:23;;;;;;;9.07;7.40;;;1.40;99.90;;;;;;4946889;29;20222;-86
2022/03/06 06:06:50;;;;;;;13.32;11.25;;;1.40;44.80;;;;;;4947256;29;20207;-86
2022/03/06 06:09:17;;;;;;;13.23;10.82;;;1.40;99.90;;;;;;4943899;29;20211;-87
2022/03/06 06:11:44;;;;;;;12.57;10.00;;;1.50;1.00;;;;;;4944437;29;20207;-86
2022/03/06 06:14:11;;;;;;;13.63;8.75;;;1.50;1.00;;;;;;4944531;29;20702;-87
2022/03/06 06:16:37;;;;;;;10.05;8.10;;;1.50;99.90;;;;;;4944176;29;20213;-87
2022/03/06 06:19:04;;;;;;;8.05;7.05;;;1.50;99.90;;;;;;4949857;29;20206;-87
2022/03/06 06:21:33;;;;;;;7.88;7.10;;;1.50;99.90;;;;;;4953277;29;20203;-87
2022/03/06 06:23:59;;;;;;;9.73;7.93;;;1.80;1.00;;;;;;4954550;29;20198;-87
2022/03/06 06:26:26;;;;;;;8.55;7.65;;;1.50;94.20;;;;;;4959198;29;20243;-86
2022/03/06 06:28:55;;;;;;;9.80;8.02;;;1.60;1.00;;;;;;4960143;29;20650;-87
2022/03/06 06:31:22;;;;;;;8.50;7.68;;;1.50;99.90;;;;;;4960059;29;20203;-86
2022/03/06 06:33:49;;;;;;;9.57;8.07;;;1.10;99.90;;;;;;4959923;28;20235;-85
2022/03/06 06:36:16;;;;;;;8.07;7.30;;;1.60;99.90;;;;;;4953812;29;20203;-86
2022/03/06 06:38:44;;;;;;;8.10;7.40;;;1.60;99.90;;;;;;4944784;29;20223;-87
2022/03/06 06:41:11;;;;;;;8.95;8.05;;;1.60;99.90;;;;;;4943888;29;20721;-87
2022/03/06 06:43:38;;;;;;;8.25;7.45;;;1.60;99.90;;;;;;4942855;29;20245;-86
2022/03/06 06:46:04;;;;;;;7.97;7.15;;;1.70;99.90;;;;;;4942454;29;20282;-87
2022/03/06 06:48:33;;;;;;;10.10;7.75;;;1.70;99.90;;;;;;4941515;29;20204;-87
2022/03/06 06:50:59;;;;;;;12.80;10.50;;;1.70;99.90;;;;;;4941970;29;20207;-86
2022/03/06 06:53:26;;;;;;;13.43;12.07;;;1.40;99.90;;;;;;4941781;29;20211;-87
2022/03/06 06:55:54;;;;;;;11.35;8.02;;;1.60;99.90;;;;;;4941635;29;20226;-86
2022/03/06 06:58:21;;;;;;;8.75;7.72;;;1.70;99.90;;;;;;4941931;29;20645;-87
2022/03/06 07:00:48;;;;;;;10.57;8.10;;;1.60;99.90;;;;;;4942148;29;20223;-87
2022/03/06 07:03:15;;;;;;;7.88;7.15;;;1.70;99.90;;;;;;4942058;29;20203;-87
2022/03/06 07:05:42;;;;;;;7.57;5.85;;;1.70;99.90;;;;;;4960422;28;20223;-87
2022/03/06 07:08:09;;;;;;;6.82;6.22;;;1.70;99.90;;;;;;4960659;28;20234;-87
2022/03/06 07:10:35;;;;;;;6.40;5.90;;;1.70;99.90;;;;;;4956474;29;20211;-87
2022/03/06 07:13:03;;;;;;;7.28;6.25;;;1.90;99.90;;;;;;4945918;29;20254;-87
2022/03/06 07:15:32;;;;;;;6.43;5.82;;;1.80;99.90;;;;;;4941433;29;20234;-86
2022/03/06 07:18:00;;;;;;;7.15;6.55;;;1.70;99.90;;;;;;4947450;29;20219;-87
2022/03/06 07:20:27;;;;;;;6.75;6.15;;;1.70;99.90;;;;;;4955314;29;20207;-85
2022/03/06 07:22:54;;;;;;;6.60;6.10;;;1.80;99.90;;;;;;4952143;29;20262;-87
2022/03/06 07:25:21;;;;;;;10.55;7.75;;;1.90;99.90;;;;;;4945435;29;20227;-88
2022/03/06 07:27:48;;;;;;;7.95;6.53;;;1.80;99.90;;;;;;4947990;29;20199;-87
2022/03/06 07:30:16;;;;;;;7.10;6.55;;;1.80;99.90;;;;;;4960629;28;20218;-87
2022/03/06 07:32:43;;;;;;;8.05;7.20;;;1.60;99.90;;;;;;4961569;28;20186;-85
2022/03/06 07:35:11;;;;;;;8.20;7.35;;;1.30;99.90;;;;;;4961111;28;20242;-85
2022/03/06 07:37:37;;;;;;;8.30;7.57;;;1.70;99.90;;;;;;4960683;28;20321;-86
2022/03/06 07:40:05;;;;;;;8.55;7.45;;;1.90;99.90;;;;;;4961726;28;20215;-85
2022/03/06 07:42:31;;;;;;;8.25;7.22;;;2.00;99.90;;;;;;4961730;28;20179;-86
2022/03/06 07:44:58;;;;;;;8.27;7.50;;;2.10;99.90;;;;;;4961084;28;20215;-86
2022/03/06 07:47:26;;;;;;;8.05;7.25;;;2.10;99.90;;;;;;4960802;28;20227;-86
2022/03/06 07:49:53;;;;;;;7.70;7.00;;;2.10;99.90;;;;;;4960764;28;20207;-87
2022/03/06 07:52:19;;;;;;;7.63;6.93;;;2.10;99.90;;;;;;4959844;29;20231;-88
2022/03/06 07:54:46;;;;;;;9.10;8.30;;;2.00;99.90;;;;;;4951634;29;20290;-87
2022/03/06 07:57:13;;;;;;;9.18;8.27;;;1.90;99.90;;;;;;4942012;29;20211;-87
2022/03/06 07:59:40;;;;;;;9.35;8.43;;;1.80;99.90;;;;;;4941448;29;20215;-87
2022/03/06 08:02:06;;;;;;;11.43;10.23;;;1.90;99.90;;;;;;4955276;29;20235;-87
2022/03/06 08:04:34;;;;;;;12.20;9.40;;;1.80;99.90;;;;;;4944742;29;20263;-87
2022/03/06 08:07:01;;;;;;;11.13;9.95;;;1.90;99.90;;;;;;4941688;29;20262;-87
2022/03/06 08:09:27;;;;;;;10.32;9.20;;;1.90;99.90;;;;;;4942028;29;20630;-87
2022/03/06 08:11:54;;;;;;;11.15;9.98;;;1.90;99.90;;;;;;4942018;29;20206;-87
2022/03/06 08:14:21;;;;;;;10.93;9.82;;;1.90;99.90;;;;;;4942907;29;20231;-88
2022/03/06 08:16:48;;;;;;;11.50;10.45;;;1.90;99.90;;;;;;4941799;29;20211;-87
2022/03/06 08:19:14;;;;;;;13.60;12.00;;;2.00;99.90;;;;;;4945739;29;20325;-89
2022/03/06 08:21:42;;;;;;;13.10;9.95;;;2.00;99.90;;;;;;4950439;29;20210;-87
2022/03/06 08:24:09;;;;;;;15.32;11.02;;;2.00;99.90;;;;;;4957606;29;20321;-87
2022/03/06 08:26:36;;;;;;;13.13;11.50;;;2.00;99.90;;;;;;4957790;29;20666;-86
2022/03/06 08:29:03;;;;;;;12.50;10.48;;;2.10;99.90;;;;;;4952029;29;20203;-86
2022/03/06 08:31:30;;;;;;;13.02;11.73;;;2.00;99.90;;;;;;4952122;29;20206;-88
2022/03/06 08:33:57;;;;;;;11.32;10.23;;;2.30;99.90;;;;;;4953663;29;20222;-86
2022/03/06 08:36:23;;;;;;;11.23;10.13;;;2.00;99.90;;;;;;4947242;29;20306;-87
2022/03/06 08:38:51;;;;;;;13.30;11.95;;;2.00;99.90;;;;;;4942755;29;20298;-87
2022/03/06 08:41:18;;;;;;;11.70;10.50;;;1.90;99.90;;;;;;4941847;29;20219;-87
2022/03/06 08:43:45;;;;;;;12.75;10.45;;;2.10;99.90;;;;;;4941529;29;20559;-86
2022/03/06 08:46:11;;;;;;;11.85;10.38;;;2.10;99.90;;;;;;4941293;29;20207;-86
2022/03/06 08:48:38;;;;;;;10.60;9.60;;;2.10;99.90;;;;;;4941947;29;20207;-86
2022/03/06 08:51:06;;;;;;;13.52;10.25;;;2.00;99.90;;;;;;4940558;29;20235;-86
2022/03/06 08:53:33;;;;;;;10.70;9.00;;;1.90;99.90;;;;;;4944661;29;20626;-86
2022/03/06 08:56:01;;;;;;;11.27;8.95;;;1.80;99.90;;;;;;4941620;29;20290;-87
2022/03/06 08:58:28;;;;;;;17.30;12.02;;;1.80;99.90;;;;;;4940668;29;20282;-86
2022/03/06 09:00:55;;;;;;;11.25;9.10;;;1.90;99.90;;;;;;4953408;28;20191;-84
2022/03/06 09:03:22;;;;;;;9.73;8.77;;;2.00;99.90;;;;;;4960924;28;20207;-84
2022/03/06 09:05:48;;;;;;;9.68;7.68;;;2.00;99.90;;;;;;4960924;28;20211;-84
2022/03/06 09:08:15;;;;;;;11.25;9.98;;;2.10;99.90;;;;;;4960737;28;20195;-84
2022/03/06 09:10:42;;;;;;;8.82;7.93;;;2.00;99.90;;;;;;4960764;28;20223;-82
2022/03/06 09:13:10;;;;;;;9.30;8.35;;;2.10;99.90;;;;;;4960628;28;20197;-86
2022/03/06 09:15:38;;;;;;;12.82;9.35;;;2.20;99.90;;;;;;4959769;28;20223;-83
2022/03/06 09:18:05;;;;;;;9.77;7.05;;;2.00;99.90;;;;;;4951638;29;20314;-86
2022/03/06 09:20:31;;;;;;;12.98;8.93;;;2.20;99.90;;;;;;4950937;29;20238;-86
2022/03/06 09:22:59;;;;;;;8.50;7.70;;;2.30;99.90;;;;;;4948997;29;20235;-86
2022/03/06 09:25:28;;;;;;;9.70;8.63;;;2.30;99.90;;;;;;4956140;29;20207;-87
2022/03/06 09:27:55;;;;;;;8.50;7.55;;;2.40;1.00;;;;;;4955981;29;20199;-86
2022/03/06 09:30:23;;;;;;;7.10;6.50;;;2.30;99.90;;;;;;4957166;29;20203;-86
2022/03/06 09:32:50;;;;;;;8.43;7.47;;;2.10;99.90;;;;;;4958111;28;20207;-86
2022/03/06 09:35:17;;;;;;;8.40;7.60;;;2.00;1.00;;;;;;4953134;29;20235;-86
2022/03/06 09:37:43;;;;;;;8.85;7.95;;;2.00;1.00;;;;;;4947218;29;20206;-86
2022/03/06 09:40:11;;;;;;;9.60;7.78;;;2.30;1.00;;;;;;4950122;29;20207;-87
2022/03/06 09:42:38;;;;;;;8.63;7.68;;;2.30;99.90;;;;;;4949588;29;20247;-87
2022/03/06 09:45:08;;;;;;;13.23;8.15;;;2.50;99.90;;;;;;4962962;23;20226;-83
2022/03/06 09:47:37;;;;;;;10.38;7.45;;;2.50;1.00;;;;;;4947980;29;20234;-83
2022/03/06 09:50:05;;;;;;;8.25;7.45;;;2.30;1.00;;;;;;4954406;29;20232;-83
2022/03/06 09:52:32;;;;;;;8.27;7.47;;;2.30;1.00;;;;;;4956498;29;20207;-85
2022/03/06 09:54:59;;;;;;;8.38;7.55;;;2.60;1.00;;;;;;4958924;29;20585;-84
2022/03/06 09:57:26;;;;;;;8.95;7.18;;;2.60;1.00;;;;;;4956233;29;20207;-84
2022/03/06 09:59:52;;;;;;;8.35;7.65;;;2.60;99.90;;;;;;4956930;29;20219;-84
2022/03/06 10:02:20;;;;;;;9.93;7.65;;;2.80;28.00;;;;;;4951090;29;20211;-84
2022/03/06 10:04:50;;;;;;;9.35;8.55;;;2.80;99.90;;;;;;4951234;29;20227;-84
2022/03/06 10:07:20;;;;;;;6.88;6.28;;;2.70;99.90;;;;;;4949152;29;20609;-84
2022/03/06 10:09:48;;;;;;;8.30;7.50;;;2.80;99.90;;;;;;4947508;29;20238;-87
2022/03/06 10:12:22;;;;;;;7.85;6.68;;;2.50;99.90;;;;;;4948431;29;20235;-85
2022/03/06 10:14:50;;;;;;;7.97;7.15;;;2.60;99.90;;;;;;4949688;29;20226;-85
2022/03/06 10:17:21;;;;;;;8.80;7.93;;;2.60;99.90;;;;;;4960090;28;20264;-86
2022/03/06 10:19:55;;;;;;;10.07;7.30;;;2.70;99.90;;;;;;4961529;29;20207;-84
2022/03/06 10:22:24;;;;;;;8.85;7.40;;;2.60;99.90;;;;;;4962359;28;20178;-86
2022/03/06 10:25:05;;;;;;;7.47;6.78;;;2.00;99.90;;;;;;4962295;29;20223;-86
2022/03/06 10:27:54;;;;;;;9.35;7.03;;;2.50;99.90;;;;;;4952154;29;20214;-88
2022/03/06 10:30:29;;;;;;;7.93;6.18;;;2.90;99.90;;;;;;4950073;29;20536;-86
2022/03/06 10:32:57;;;;;;;7.18;6.47;;;2.60;99.90;;;;;;4947534;29;20210;-85
2022/03/06 10:35:37;;;;;;;7.07;6.45;;;2.60;99.90;;;;;;4950743;29;20246;-84
2022/03/06 10:38:19;;;;;;;7.60;7.00;;;2.70;99.90;;;;;;4961705;28;20175;-86
2022/03/06 10:40:46;;;;;;;7.93;7.15;;;2.60;99.90;;;;;;4959630;28;20191;-86
2022/03/06 10:43:21;;;;;;;7.43;6.72;;;2.40;99.90;;;;;;4956745;29;20206;-84
2022/03/06 10:45:48;;;;;;;9.07;8.18;;;2.50;99.90;;;;;;4958646;29;20245;-85
2022/03/06 10:48:22;;;;;;;7.22;6.63;;;2.80;99.90;;;;;;4959174;29;20250;-84
2022/03/06 10:50:59;;;;;;;7.97;6.78;;;3.10;99.90;;;;;;4951653;29;20352;-86
2022/03/06 10:53:27;;;;;;;11.63;8.77;;;3.10;99.90;;;;;;4950671;28;20258;-85
2022/03/06 10:55:54;;;;;;;8.73;7.47;;;2.80;99.90;;;;;;4961719;28;20222;-86
2022/03/06 10:58:22;;;;;;;6.72;6.22;;;2.90;99.90;;;;;;4961583;28;20203;-84
2022/03/06 11:00:49;;;;;;;7.20;6.50;;;2.90;99.90;;;;;;4961608;28;20234;-85
2022/03/06 11:03:16;;;;;;;7.22;6.63;;;3.20;99.90;;;;;;4961661;28;20191;-85
2022/03/06 11:05:44;;;;;;;8.23;7.55;;;3.00;99.90;;;;;;4956454;28;20254;-86
2022/03/06 11:08:17;;;;;;;7.18;6.57;;;2.90;99.90;;;;;;4957118;29;20211;-85
2022/03/06 11:10:44;;;;;;;7.50;6.80;;;2.80;99.90;;;;;;4958860;29;20231;-86
2022/03/06 11:13:12;;;;;;;9.10;7.25;;;2.60;99.90;;;;;;4958038;29;20278;-85
2022/03/06 11:15:39;;;;;;;7.68;7.07;;;2.60;99.90;;;;;;4957574;29;20291;-85
2022/03/06 11:18:06;;;;;;;8.25;7.40;;;2.50;99.90;;;;;;4956999;29;20245;-86
2022/03/06 11:20:37;;;;;;;8.10;7.30;;;2.60;99.90;;;;;;4952471;29;20211;-86
2022/03/06 11:23:17;;;;;;;8.05;7.43;;;3.00;99.90;;;;;;4948535;29;20211;-87
2022/03/06 11:26:03;;;;;;;8.18;7.38;;;3.00;99.90;;;;;;4948269;29;20230;-87
2022/03/06 11:28:39;;;;;;;6.88;6.35;;;3.20;99.90;;;;;;4952248;29;20558;-86
2022/03/06 11:31:06;;;;;;;7.40;6.70;;;3.20;99.90;;;;;;4948156;29;20207;-85
2022/03/06 11:33:34;;;;;;;7.40;6.80;;;2.60;99.90;;;;;;4948918;29;20221;-85
2022/03/06 11:36:19;;;;;;;9.57;8.05;;;2.80;99.90;;;;;;4949576;29;20227;-85
2022/03/06 11:38:49;;;;;;;7.20;6.50;;;3.10;99.90;;;;;;4956254;28;20234;-85
2022/03/06 11:41:19;;;;;;;8.20;7.53;;;3.00;99.90;;;;;;4961010;28;20186;-85
2022/03/06 11:43:48;;;;;;;7.78;7.00;;;2.80;99.90;;;;;;4960886;28;20179;-85
2022/03/06 11:46:17;;;;;;;9.50;7.50;;;3.00;99.90;;;;;;4960138;28;20227;-86
2022/03/06 11:49:11;;;;;;;9.30;7.00;;;2.90;99.90;;;;;;4955942;28;20213;-85
2022/03/06 11:51:45;;;;;;;7.55;6.85;;;3.40;99.90;;;;;;4948805;29;20201;-86
2022/03/06 11:54:15;;;;;;;7.38;6.70;;;3.40;99.90;;;;;;4948812;29;20210;-86
2022/03/06 11:56:58;;;;;;;6.93;6.38;;;3.40;99.90;;;;;;4947215;29;20203;-86
2022/03/06 11:59:30;;;;;;;8.10;7.38;;;3.00;99.90;;;;;;4944365;29;20210;-86
2022/03/06 12:01:58;;;;;;;7.93;7.15;;;3.30;99.90;;;;;;4945293;29;20255;-86
2022/03/06 12:04:27;;;;;;;8.95;8.07;;;3.20;99.90;;;;;;4944750;29;20745;-86
2022/03/06 12:06:58;;;;;;;8.15;7.35;;;3.40;99.90;;;;;;4946001;29;20199;-85
2022/03/06 12:09:26;;;;;;;8.68;7.85;;;3.00;99.90;;;;;;4944235;29;20643;-85
2022/03/06 12:11:56;;;;;;;10.90;8.85;;;2.80;99.90;;;;;;4943617;29;20206;-86
2022/03/06 12:14:24;;;;;;;8.55;7.85;;;3.30;99.90;;;;;;4947083;29;20203;-84
2022/03/06 12:17:28;;;;;;;7.60;6.90;;;3.00;99.90;;;;;;4944534;29;20207;-85
2022/03/06 12:20:25;;;;;;;8.10;7.32;;;2.60;99.90;;;;;;4935021;29;20273;-86
2022/03/06 12:22:54;;;;;;;8.77;7.85;;;3.00;99.90;;;;;;4952505;29;20198;-85
2022/03/06 12:25:24;;;;;;;6.88;6.28;;;3.10;99.90;;;;;;4953037;29;20251;-86
2022/03/06 12:28:19;;;;;;;7.85;7.05;;;3.10;99.90;;;;;;4949178;29;20199;-85
2022/03/06 12:30:46;;;;;;;8.13;7.53;;;3.10;99.90;;;;;;4947570;29;20277;-86
2022/03/06 12:33:30;;;;;;;4.88;4.50;;;3.10;99.90;;;;;;4947715;29;20211;-85
2022/03/06 12:36:16;;;;;;;6.72;5.43;;;3.40;99.90;;;;;;4949983;29;20251;-85
2022/03/06 12:38:44;;;;;;;4.72;4.40;;;3.50;99.90;;;;;;4937721;29;20205;-86
2022/03/06 12:41:11;;;;;;;4.47;4.18;;;3.10;99.90;;;;;;4947921;29;20211;-85
2022/03/06 12:43:48;;;;;;;4.00;3.70;;;3.20;99.90;;;;;;4945436;29;20979;-86
2022/03/06 12:46:17;;;;;;;4.00;3.70;;;3.10;99.90;;;;;;4945665;29;20234;-86
2022/03/06 12:48:47;;;;;;;3.50;3.20;;;3.00;99.90;;;;;;4946172;29;20217;-85
2022/03/06 12:51:25;;;;;;;3.15;2.95;;;3.30;99.90;;;;;;4944829;29;20202;-85
2022/03/06 12:53:52;;;;;;;3.13;2.92;;;3.10;99.90;;;;;;4944924;29;20219;-85
2022/03/06 12:56:29;;;;;;;2.60;2.50;;;3.20;99.90;;;;;;4945634;29;20231;-85
2022/03/06 12:59:08;;;;;;;3.03;2.83;;;3.10;99.90;;;;;;4944737;29;20668;-85
2022/03/06 13:01:37;;;;;;;2.40;2.30;;;3.20;99.90;;;;;;4947433;29;20188;-85